Time;durP1;ratioP1;P1;durP2;ratioP2;P2;SDS_P1;SDS_P2;PMS_P1;PMS_P2;Temp;Humidity;BMP_temperature;BMP_pressure;BME280_temperature;BME280_humidity;BME280_pressure;Samples;Min_cycle;Max_cycle;Signal;HPM_P1;HPM_P2
2022/11/03 00:00:09;;;;;;;25.85;7.40;;;;;;;16.03;44.46;100170.91;5120886;28;20452;-67
2022/11/03 00:02:34;;;;;;;25.25;7.30;;;;;;;16.31;44.15;100172.88;5122076;28;20042;-67
2022/11/03 00:06:03;;;;;;;24.25;9.43;;;;;;;16.31;44.24;100163.03;5136027;27;20023;-67
2022/11/03 00:07:45;;;;;;;22.35;9.32;;;;;;;16.40;44.15;100171.75;5120824;28;20066;-67
2022/11/03 00:10:10;;;;;;;21.45;8.90;;;;;;;16.51;43.67;100169.41;5120242;28;20098;-68
2022/11/03 00:12:36;;;;;;;31.25;7.38;;;;;;;16.58;43.40;100166.81;5121314;28;20206;-67
2022/11/03 00:15:01;;;;;;;19.50;6.78;;;;;;;16.59;43.17;100163.09;5120793;28;20031;-68
2022/11/03 00:17:26;;;;;;;24.88;6.65;;;;;;;16.74;42.60;100161.25;5121825;28;20020;-68
2022/11/03 00:19:52;;;;;;;24.23;5.63;;;;;;;17.01;42.05;100151.59;5120314;28;20062;-67
2022/11/03 00:22:17;;;;;;;21.35;5.30;;;;;;;17.06;41.73;100153.72;5120838;28;20351;-67
2022/11/03 00:24:43;;;;;;;16.73;4.90;;;;;;;17.21;41.78;100149.09;5122084;27;20099;-67
2022/11/03 00:27:08;;;;;;;16.58;5.18;;;;;;;17.49;40.69;100152.56;5120645;28;20133;-68
2022/11/03 00:29:33;;;;;;;16.48;4.45;;;;;;;17.56;40.51;100152.59;5121179;28;20359;-68
2022/11/03 00:31:59;;;;;;;17.42;4.60;;;;;;;17.43;40.33;100110.50;5121568;28;20054;-68
2022/11/03 00:34:25;;;;;;;10.57;4.05;;;;;;;17.64;40.22;100136.38;5120715;28;20040;-68
2022/11/03 00:36:50;;;;;;;16.00;4.85;;;;;;;17.73;40.08;100145.97;5121600;28;20244;-68
2022/11/03 00:39:15;;;;;;;20.88;4.32;;;;;;;17.87;39.52;100149.53;5120940;28;20031;-68
2022/11/03 00:41:41;;;;;;;13.38;4.80;;;;;;;17.95;39.53;100149.34;5120060;28;20032;-68
2022/11/03 00:44:09;;;;;;;20.67;5.43;;;;;;;17.78;39.42;100154.22;5120315;28;20304;-67
2022/11/03 00:46:34;;;;;;;15.95;4.20;;;;;;;17.85;39.35;100147.03;5120488;28;20343;-68
2022/11/03 00:49:00;;;;;;;20.08;4.78;;;;;;;17.96;39.00;100147.50;5121264;28;20020;-67
2022/11/03 00:51:30;;;;;;;20.15;4.63;;;;;;;17.91;39.17;100141.91;5121115;28;20081;-68
2022/11/03 00:54:00;;;;;;;20.25;4.90;;;;;;;17.99;38.83;100150.59;5121243;28;20133;-68
2022/11/03 00:56:29;;;;;;;19.75;5.00;;;;;;;18.03;38.45;100154.53;5119867;28;20303;-68
2022/11/03 00:58:57;;;;;;;13.52;4.40;;;;;;;18.03;38.76;100143.81;5120683;28;20043;-68
2022/11/03 01:01:27;;;;;;;13.93;4.55;;;;;;;17.98;38.77;100157.00;5119620;28;20354;-68
2022/11/03 01:06:50;;;;;;;16.02;4.38;;;;;;;18.04;38.60;100150.81;5117973;28;20216;-68
2022/11/03 01:09:21;;;;;;;14.85;4.15;;;;;;;18.12;38.53;100160.53;5119158;28;20051;-68
2022/11/03 01:12:05;;;;;;;15.43;4.25;;;;;;;18.07;38.73;100157.63;5118468;28;20317;-68
2022/11/03 01:14:42;;;;;;;13.70;3.93;;;;;;;18.05;38.69;100155.16;5112460;28;20073;-68
2022/11/03 01:17:10;;;;;;;14.52;4.07;;;;;;;18.01;38.48;100159.28;5117164;28;20023;-68
2022/11/03 01:19:36;;;;;;;15.95;4.32;;;;;;;18.02;38.32;100146.69;5120034;28;20032;-68
2022/11/03 01:22:01;;;;;;;13.55;3.90;;;;;;;17.97;38.61;100152.66;5119169;28;20028;-68
2022/11/03 01:24:27;;;;;;;16.23;4.63;;;;;;;18.07;38.26;100142.38;5120033;28;20035;-68
2022/11/03 01:26:52;;;;;;;14.43;3.85;;;;;;;18.26;38.46;100154.19;5120102;28;20355;-68
2022/11/03 01:29:18;;;;;;;17.88;4.03;;;;;;;18.30;38.25;100157.31;5120400;28;20364;-68
2022/11/03 01:31:44;;;;;;;14.52;4.30;;;;;;;18.24;38.30;100150.88;5120394;28;20032;-68
2022/11/03 01:34:15;;;;;;;16.33;4.45;;;;;;;18.24;38.14;100152.75;5120779;28;20027;-68
2022/11/03 01:36:41;;;;;;;12.07;4.15;;;;;;;18.16;38.02;100143.88;5119831;27;20364;-68
2022/11/03 01:39:09;;;;;;;14.10;4.10;;;;;;;18.28;37.98;100157.50;5118360;28;20031;-68
2022/11/03 01:41:35;;;;;;;15.60;4.10;;;;;;;18.23;37.92;100143.06;5120263;28;20027;-68
2022/11/03 01:44:06;;;;;;;15.60;3.95;;;;;;;18.26;37.61;100154.19;5119053;28;20143;-68
2022/11/03 01:46:36;;;;;;;17.00;4.68;;;;;;;18.13;37.72;100148.78;5118849;28;20055;-68
2022/11/03 01:49:10;;;;;;;23.10;4.57;;;;;;;18.26;37.51;100153.38;5119855;28;20142;-68
2022/11/03 01:51:37;;;;;;;18.67;4.63;;;;;;;18.24;37.81;100161.63;5118676;28;20092;-68
2022/11/03 01:54:09;;;;;;;10.85;3.97;;;;;;;18.24;37.43;100164.28;5120093;28;20316;-68
2022/11/03 01:56:39;;;;;;;13.18;4.45;;;;;;;18.32;37.56;100164.13;5119098;28;20035;-68
2022/11/03 01:59:04;;;;;;;11.15;3.67;;;;;;;18.41;37.45;100164.75;5118780;28;20107;-68
2022/11/03 02:01:30;;;;;;;17.02;3.67;;;;;;;18.38;37.47;100165.97;5119696;28;20043;-68
2022/11/03 02:04:02;;;;;;;15.20;3.80;;;;;;;18.22;37.46;100155.63;5118588;28;20074;-68
2022/11/03 02:06:28;;;;;;;9.82;3.47;;;;;;;18.25;37.32;100173.16;5118046;28;20384;-68
2022/11/03 02:09:02;;;;;;;16.35;4.00;;;;;;;18.24;37.04;100160.78;5119502;28;20217;-67
2022/11/03 02:14:14;;;;;;;20.77;4.07;;;;;;;18.11;37.28;100165.06;5119196;28;20027;-67
2022/11/03 02:16:43;;;;;;;11.80;3.85;;;;;;;18.28;37.33;100173.59;5118427;28;20023;-67
2022/11/03 02:19:30;;;;;;;11.23;3.45;;;;;;;18.22;37.58;100171.72;5116052;28;20032;-68
2022/11/03 02:22:22;;;;;;;13.73;3.55;;;;;;;18.24;37.43;100179.56;5116461;28;20317;-68
2022/11/03 02:24:51;;;;;;;11.10;3.42;;;;;;;18.26;37.17;100170.28;5117293;28;20042;-68
2022/11/03 02:27:18;;;;;;;14.95;3.88;;;;;;;18.16;37.47;100178.69;5115803;28;20023;-68
2022/11/03 02:29:44;;;;;;;12.68;3.75;;;;;;;18.29;37.66;100175.25;5118744;28;20404;-68
2022/11/03 02:32:14;;;;;;;18.63;3.58;;;;;;;18.09;37.54;100151.06;5129624;27;20030;-68
2022/11/03 02:34:57;;;;;;;13.57;3.65;;;;;;;18.36;37.38;100180.63;5118932;28;20095;-67
2022/11/03 02:37:28;;;;;;;14.88;4.35;;;;;;;18.36;37.30;100181.44;5119079;28;20237;-68
2022/11/03 02:40:01;;;;;;;17.25;4.30;;;;;;;18.38;37.42;100183.94;5118182;28;20035;-68
2022/11/03 02:42:27;;;;;;;15.40;4.22;;;;;;;18.42;37.08;100186.00;5099767;28;20205;-68
2022/11/03 02:44:56;;;;;;;15.40;4.25;;;;;;;18.49;37.06;100184.16;5118582;28;20076;-68
2022/11/03 02:47:24;;;;;;;16.83;4.78;;;;;;;18.40;37.08;100187.22;5100349;28;20034;-68
2022/11/03 02:49:52;;;;;;;12.10;3.67;;;;;;;18.51;36.99;100183.97;5117637;28;20089;-68
2022/11/03 02:52:33;;;;;;;16.63;3.50;;;;;;;18.49;36.96;100184.16;5115229;28;20027;-68
2022/11/03 02:55:08;;;;;;;17.73;4.28;;;;;;;18.52;36.89;100180.25;5118456;28;20028;-68
2022/11/03 02:57:39;;;;;;;13.73;3.38;;;;;;;18.56;36.71;100188.72;5100581;28;20065;-68
2022/11/03 03:00:06;;;;;;;14.15;3.50;;;;;;;18.46;36.98;100178.38;5118105;28;20315;-68
2022/11/03 03:02:58;;;;;;;11.45;4.10;;;;;;;18.44;37.20;100185.78;5118037;28;20028;-68
2022/11/03 03:05:27;;;;;;;31.27;5.57;;;;;;;18.32;37.20;100179.38;5116793;28;20371;-68
2022/11/03 03:07:59;;;;;;;18.67;4.60;;;;;;;18.17;37.71;100182.22;5116488;28;20023;-68
2022/11/03 03:10:31;;;;;;;15.50;3.97;;;;;;;18.22;37.47;100190.47;5118116;28;20092;-68
2022/11/03 03:12:58;;;;;;;11.60;4.57;;;;;;;18.31;37.35;100194.63;5118221;28;20035;-68
2022/11/03 03:15:34;;;;;;;17.10;4.47;;;;;;;18.24;37.46;100196.47;5119872;28;20080;-68
2022/11/03 03:18:18;;;;;;;13.70;4.38;;;;;;;18.30;37.33;100190.28;5118804;28;20439;-68
2022/11/03 03:20:54;;;;;;;14.03;4.23;;;;;;;18.36;37.21;100197.53;5119292;28;20270;-68
2022/11/03 03:23:46;;;;;;;14.30;4.13;;;;;;;18.31;37.03;100201.84;5099480;28;20657;-68
2022/11/03 03:26:25;;;;;;;15.73;4.35;;;;;;;18.42;37.09;100202.09;5116390;28;20028;-68
2022/11/03 03:28:56;;;;;;;16.95;3.88;;;;;;;18.32;37.45;100198.97;5117474;28;20038;-68
2022/11/03 03:31:24;;;;;;;20.20;5.00;;;;;;;18.24;37.25;100199.13;5114586;28;20043;-68
2022/11/03 03:33:53;;;;;;;13.77;4.55;;;;;;;18.24;37.42;100193.78;5118453;28;20036;-68
2022/11/03 03:36:19;;;;;;;14.15;3.80;;;;;;;18.21;37.42;100193.34;5117418;28;20329;-68
2022/11/03 03:38:51;;;;;;;9.75;3.50;;;;;;;18.29;37.35;100188.66;5118025;28;20102;-68
2022/11/03 03:41:20;;;;;;;15.20;3.95;;;;;;;18.21;37.51;100193.34;5117913;28;20575;-68
2022/11/03 03:43:50;;;;;;;13.43;3.50;;;;;;;18.11;37.57;100183.84;5119023;28;20027;-68
2022/11/03 03:46:16;;;;;;;16.45;4.03;;;;;;;18.14;37.57;100183.44;5117443;28;20031;-68
2022/11/03 03:48:42;;;;;;;18.33;4.45;;;;;;;18.18;37.79;100189.22;5121361;28;20035;-68
2022/11/03 03:51:09;;;;;;;20.58;4.32;;;;;;;18.30;37.39;100190.28;5120894;28;20108;-68
2022/11/03 03:53:34;;;;;;;18.58;4.50;;;;;;;18.32;37.75;100179.38;5121276;28;20024;-68
2022/11/03 03:56:00;;;;;;;11.23;4.25;;;;;;;18.23;37.73;100183.25;5121565;28;20049;-68
2022/11/03 03:58:25;;;;;;;10.68;4.80;;;;;;;18.17;37.82;100193.75;5121971;28;20030;-68
2022/11/03 04:00:50;;;;;;;14.80;4.00;;;;;;;18.19;38.14;100185.50;5122529;28;20027;-68
2022/11/03 04:03:22;;;;;;;16.58;4.70;;;;;;;18.21;38.38;100183.47;5121898;28;20034;-68
2022/11/03 04:05:48;;;;;;;18.48;4.22;;;;;;;18.29;38.61;100180.59;5121442;28;20334;-67
2022/11/03 04:08:14;;;;;;;15.55;4.53;;;;;;;18.13;39.00;100176.44;5120963;28;20031;-68
2022/11/03 04:22:15;;;;;;;14.07;4.13;;;;;;;18.16;38.81;100177.88;5120740;28;20091;-68
2022/11/03 04:24:21;;;;;;;17.77;4.68;;;;;;;18.22;38.29;100192.31;5119045;28;20057;-68
2022/11/03 04:26:46;;;;;;;14.18;4.30;;;;;;;18.20;38.28;100195.22;5121730;28;20024;-68
2022/11/03 04:29:12;;;;;;;16.95;4.15;;;;;;;18.31;37.70;100189.28;5120688;28;20035;-68
2022/11/03 04:31:37;;;;;;;14.55;4.40;;;;;;;18.23;37.51;100191.31;5120877;28;20052;-68
2022/11/03 04:34:09;;;;;;;15.93;4.35;;;;;;;18.31;37.71;100188.44;5121422;28;20072;-68
2022/11/03 04:36:34;;;;;;;13.48;4.13;;;;;;;18.22;37.74;100186.97;5120138;28;20020;-68
2022/11/03 04:39:00;;;;;;;15.48;4.40;;;;;;;18.22;37.91;100203.03;5120990;28;20313;-68
2022/11/03 04:41:31;;;;;;;15.10;5.25;;;;;;;18.17;37.66;100199.13;5120474;28;20065;-67
2022/11/03 04:43:57;;;;;;;17.92;3.97;;;;;;;18.26;37.82;100196.25;5120897;28;20027;-68
2022/11/03 04:46:28;;;;;;;16.40;4.60;;;;;;;18.27;37.71;100198.75;5120707;28;20016;-68
2022/11/03 04:48:57;;;;;;;21.77;4.70;;;;;;;18.14;37.61;100196.84;5121764;28;20031;-68
2022/11/03 04:51:26;;;;;;;19.02;5.65;;;;;;;18.32;37.60;100200.81;5119725;28;20077;-68
2022/11/03 04:53:54;;;;;;;21.10;5.10;;;;;;;18.36;37.79;100204.75;5120151;28;20024;-68
2022/11/03 04:56:23;;;;;;;16.83;5.40;;;;;;;18.30;37.55;100206.38;5120551;28;20054;-68
2022/11/03 04:58:48;;;;;;;18.88;4.70;;;;;;;18.23;37.72;100208.22;5134882;27;20038;-68
2022/11/03 05:01:17;;;;;;;15.07;3.85;;;;;;;18.21;37.52;100214.78;5120245;28;20032;-67
2022/11/03 05:03:45;;;;;;;18.38;4.80;;;;;;;18.33;36.89;100211.34;5120696;28;20031;-70
2022/11/03 05:06:16;;;;;;;13.20;4.38;;;;;;;18.55;36.63;100235.34;5120993;28;20012;-69
2022/11/03 05:08:45;;;;;;;19.33;4.72;;;;;;;18.58;36.45;100233.06;5121621;28;20139;-70
2022/11/03 05:11:33;;;;;;;19.35;4.15;;;;;;;18.69;36.92;100234.38;5119055;28;20035;-70
2022/11/03 05:14:02;;;;;;;27.88;5.07;;;;;;;18.72;36.12;100248.22;5119594;28;20080;-69
2022/11/03 05:16:27;;;;;;;16.70;4.20;;;;;;;18.93;35.32;100241.88;5120662;28;20394;-69
2022/11/03 05:18:53;;;;;;;31.20;5.57;;;;;;;19.01;35.43;100254.28;5120048;28;20023;-70
2022/11/03 05:21:21;;;;;;;26.02;4.70;;;;;;;18.78;35.76;100260.00;5119684;28;20036;-69
2022/11/03 05:23:55;;;;;;;9.35;3.47;;;;;;;18.63;35.83;100264.69;5120349;28;20046;-69
2022/11/03 05:26:25;;;;;;;16.75;4.05;;;;;;;18.65;36.22;100263.47;5119129;28;20051;-70
2022/11/03 05:29:01;;;;;;;18.05;4.22;;;;;;;18.74;36.45;100266.81;5119736;28;20275;-70
2022/11/03 05:31:33;;;;;;;17.05;4.07;;;;;;;18.47;36.94;100266.66;5120553;28;20023;-67
2022/11/03 05:34:01;;;;;;;10.02;3.67;;;;;;;18.42;37.31;100263.75;5101548;28;20186;-68
2022/11/03 05:36:29;;;;;;;115.72;9.20;;;;;;;18.34;37.92;100277.34;5120370;28;20031;-68
2022/11/03 05:39:25;;;;;;;53.28;5.70;;;;;;;18.30;37.70;100275.25;5101951;28;20054;-68
2022/11/03 05:41:50;;;;;;;26.40;4.13;;;;;;;18.59;37.26;100279.50;5099157;28;20019;-68
2022/11/03 05:44:25;;;;;;;46.20;6.80;;;;;;;18.41;37.77;100286.22;5118867;28;20047;-68
2022/11/03 05:46:50;;;;;;;33.03;4.63;;;;;;;18.32;37.86;100291.97;5118875;28;20057;-68
2022/11/03 05:49:17;;;;;;;17.67;3.95;;;;;;;18.24;37.67;100292.13;5119699;28;20027;-69
2022/11/03 05:51:44;;;;;;;17.25;4.47;;;;;;;18.26;37.80;100306.16;5119131;28;20038;-68
2022/11/03 05:54:21;;;;;;;19.08;4.15;;;;;;;18.32;38.23;100305.38;5119090;28;20042;-68
2022/11/03 05:56:46;;;;;;;28.75;4.18;;;;;;;18.37;38.10;100308.28;5090686;28;20259;-68
2022/11/03 05:59:13;;;;;;;28.00;4.57;;;;;;;18.45;38.20;100311.63;5119151;28;20052;-68
2022/11/03 06:01:39;;;;;;;34.65;4.90;;;;;;;18.38;37.80;100318.81;5118586;28;20043;-68
2022/11/03 06:04:28;;;;;;;37.05;5.53;;;;;;;18.59;37.88;100322.41;5119780;28;20093;-68
2022/11/03 06:07:03;;;;;;;35.17;4.85;;;;;;;18.62;37.88;100325.53;5118258;28;20027;-70
2022/11/03 06:09:32;;;;;;;19.65;4.38;;;;;;;18.86;37.72;100329.59;5119302;28;20035;-70
2022/11/03 06:12:00;;;;;;;37.63;5.80;;;;;;;18.93;37.57;100322.38;5119497;28;20459;-70
2022/11/03 06:14:29;;;;;;;47.03;6.00;;;;;;;19.45;36.73;100332.38;5119543;28;20050;-70
2022/11/03 06:17:25;;;;;;;27.20;5.22;;;;;;;19.39;36.52;100341.25;5120819;28;20225;-70
2022/11/03 06:19:59;;;;;;;23.00;4.85;;;;;;;19.28;36.26;100341.88;5113652;28;20371;-70
2022/11/03 06:22:35;;;;;;;21.63;4.65;;;;;;;19.08;36.63;100341.00;5119404;28;20035;-70
2022/11/03 06:25:19;;;;;;;23.05;4.68;;;;;;;19.58;36.07;100360.31;5118859;28;20054;-70
2022/11/03 06:27:45;;;;;;;20.80;4.07;;;;;;;19.53;35.73;100352.06;5101001;28;20032;-70
2022/11/03 06:30:24;;;;;;;15.43;3.80;;;;;;;19.67;36.08;100370.66;5119125;28;20059;-70
2022/11/03 06:32:49;;;;;;;16.70;3.97;;;;;;;19.86;35.93;100370.91;5119190;28;20039;-70
2022/11/03 06:35:16;;;;;;;23.15;4.63;;;;;;;19.94;35.56;100374.19;5117893;28;20043;-70
2022/11/03 06:37:43;;;;;;;15.90;3.80;;;;;;;19.96;36.05;100369.44;5119082;28;20031;-70
2022/11/03 06:40:08;;;;;;;21.90;4.47;;;;;;;20.18;35.40;100370.03;5099155;28;20331;-70
2022/11/03 06:42:33;;;;;;;21.95;5.00;;;;;;;20.27;34.51;100360.72;5118122;28;20032;-70
2022/11/03 06:45:01;;;;;;;19.00;5.63;;;;;;;20.31;34.78;100361.13;5118503;28;20359;-70
2022/11/03 06:47:28;;;;;;;16.50;4.13;;;;;;;20.50;35.21;100359.44;5117953;28;20023;-70
2022/11/03 06:49:58;;;;;;;19.73;5.40;;;;;;;20.54;34.27;100369.56;5115149;28;20032;-70
2022/11/03 06:52:24;;;;;;;35.75;9.73;;;;;;;20.62;36.58;100377.41;5118439;28;20106;-70
2022/11/03 06:54:58;;;;;;;29.67;9.95;;;;;;;20.13;37.79;100379.75;5117678;28;20206;-70
2022/11/03 06:57:23;;;;;;;52.40;18.77;;;;;;;19.62;39.06;100391.94;5115550;28;20255;-70
2022/11/03 06:59:51;;;;;;;35.38;11.63;;;;;;;19.10;40.22;100384.56;5118699;28;20027;-70
2022/11/03 07:02:42;;;;;;;30.38;9.35;;;;;;;18.59;41.25;100389.47;5118103;28;20051;-68
2022/11/03 07:05:19;;;;;;;31.95;8.95;;;;;;;18.30;41.99;100380.63;5117520;28;20040;-68
2022/11/03 07:07:45;;;;;;;29.92;8.20;;;;;;;18.23;42.40;100403.06;5112193;28;20028;-68
2022/11/03 07:10:11;;;;;;;23.85;7.80;;;;;;;18.38;42.23;100401.09;5118572;28;20039;-68
2022/11/03 07:12:36;;;;;;;24.42;7.97;;;;;;;18.43;42.09;100406.69;5099543;28;20031;-68
2022/11/03 07:15:03;;;;;;;17.85;7.35;;;;;;;18.26;42.43;100402.66;5117574;28;20054;-67
2022/11/03 07:17:29;;;;;;;23.77;6.72;;;;;;;18.38;41.28;100406.47;5119277;28;20036;-68
2022/11/03 07:19:54;;;;;;;16.60;6.97;;;;;;;18.23;41.35;100411.94;5117898;28;20190;-68
2022/11/03 07:22:24;;;;;;;33.78;7.60;;;;;;;18.41;40.90;100398.84;5120292;28;20019;-68
2022/11/03 07:24:55;;;;;;;32.35;8.75;;;;;;;18.56;40.81;100398.72;5122113;28;20250;-68
2022/11/03 07:27:37;;;;;;;23.13;7.22;;;;;;;18.44;40.83;100398.47;5121841;28;20027;-68
2022/11/03 07:30:29;;;;;;;24.55;7.10;;;;;;;18.52;40.63;100405.50;5114240;28;20328;-68
2022/11/03 07:33:09;;;;;;;26.15;6.20;;;;;;;18.55;40.40;100401.59;5118585;28;20032;-68
2022/11/03 07:35:39;;;;;;;17.95;6.45;;;;;;;18.68;40.42;100404.41;5122745;28;20031;-67
2022/11/03 07:38:12;;;;;;;22.85;6.60;;;;;;;19.11;40.55;100410.38;5121159;28;20268;-68
2022/11/03 07:40:37;;;;;;;21.27;7.20;;;;;;;19.25;40.03;100387.91;5122536;28;20027;-68
2022/11/03 07:43:33;;;;;;;31.77;7.18;;;;;;;19.61;39.70;100410.94;5121773;28;20127;-68
2022/11/03 07:46:03;;;;;;;20.65;6.20;;;;;;;19.77;38.89;100411.41;5120927;28;20063;-70
2022/11/03 07:48:38;;;;;;;24.92;7.13;;;;;;;19.93;38.57;100401.28;5103288;28;20031;-70
2022/11/03 07:51:28;;;;;;;21.73;6.57;;;;;;;19.85;37.88;100404.19;5120823;28;20052;-70
2022/11/03 07:54:24;;;;;;;73.90;9.43;;;;;;;19.83;38.21;100407.06;5121272;28;20328;-70
2022/11/03 07:57:14;;;;;;;22.02;8.00;;;;;;;19.69;38.76;100411.59;5121878;28;20035;-70
2022/11/03 07:59:47;;;;;;;64.75;8.93;;;;;;;19.85;38.18;100402.31;5100062;28;20028;-70
2022/11/03 08:02:33;;;;;;;36.25;7.00;;;;;;;19.98;37.50;100396.13;5121710;28;20039;-70
2022/11/03 08:04:59;;;;;;;21.65;7.90;;;;;;;19.87;38.01;100399.44;5121440;28;20035;-70
2022/11/03 08:07:26;;;;;;;20.63;6.30;;;;;;;20.12;36.62;100394.25;5120850;28;20100;-70
2022/11/03 08:09:53;;;;;;;20.38;5.30;;;;;;;20.16;36.69;100401.69;5121240;28;20027;-70
2022/11/03 08:12:18;;;;;;;15.77;5.35;;;;;;;19.91;36.72;100392.59;5120737;28;20058;-70
2022/11/03 08:14:44;;;;;;;11.82;5.38;;;;;;;19.91;36.70;100387.22;5122036;28;20465;-70
2022/11/03 08:17:09;;;;;;;23.58;5.55;;;;;;;20.16;36.71;100396.31;5120897;28;20423;-70
2022/11/03 08:19:35;;;;;;;13.77;5.63;;;;;;;20.21;35.90;100393.00;5120537;28;20280;-70
2022/11/03 08:22:00;;;;;;;18.60;5.57;;;;;;;20.32;35.98;100387.81;5137073;27;20221;-70
2022/11/03 08:24:26;;;;;;;18.75;5.95;;;;;;;20.20;35.90;100394.84;5101193;28;20241;-70
2022/11/03 08:26:51;;;;;;;19.90;5.43;;;;;;;20.30;35.55;100394.44;5121310;28;20481;-70
2022/11/03 08:29:17;;;;;;;21.05;5.50;;;;;;;20.59;35.10;100390.47;5091996;28;20028;-70
2022/11/03 08:31:43;;;;;;;16.77;5.32;;;;;;;20.70;35.07;100389.81;5120447;28;20033;-70
2022/11/03 08:34:08;;;;;;;14.90;5.57;;;;;;;20.69;35.36;100380.06;5120372;28;20229;-70
2022/11/03 08:36:34;;;;;;;15.27;5.80;;;;;;;20.72;35.02;100385.03;5101064;28;20022;-70
2022/11/03 08:38:59;;;;;;;24.88;5.53;;;;;;;21.08;34.51;100392.56;5120067;28;20047;-70
2022/11/03 08:41:25;;;;;;;18.52;5.70;;;;;;;21.14;33.98;100386.31;5120924;28;20048;-70
2022/11/03 08:43:50;;;;;;;14.45;4.72;;;;;;;20.79;34.24;100383.13;5120346;28;20028;-70
2022/11/03 08:46:15;;;;;;;16.20;5.18;;;;;;;20.99;35.26;100377.69;5120926;27;20056;-69
2022/11/03 08:48:41;;;;;;;23.20;6.25;;;;;;;20.75;40.73;100371.16;5102038;28;20023;-68
2022/11/03 08:51:12;;;;;;;21.08;5.53;;;;;;;20.42;44.15;100370.44;5120670;28;20050;-68
2022/11/03 08:53:38;;;;;;;17.70;5.00;;;;;;;20.40;41.29;100376.03;5120158;28;20043;-69
2022/11/03 08:56:04;;;;;;;13.50;5.38;;;;;;;20.49;39.36;100365.88;5120137;28;20035;-68
2022/11/03 08:58:30;;;;;;;15.27;5.70;;;;;;;20.64;37.34;100388.78;5120476;28;20329;-69
2022/11/03 09:00:56;;;;;;;25.90;8.73;;;;;;;20.61;39.52;100386.53;5119650;28;20047;-69
2022/11/03 09:03:21;;;;;;;26.35;9.27;;;;;;;20.59;42.19;100383.22;5120919;28;20332;-69
2022/11/03 09:05:47;;;;;;;23.95;8.18;;;;;;;20.59;41.42;100379.69;5120229;28;20050;-69
2022/11/03 09:08:12;;;;;;;20.80;8.48;;;;;;;20.61;38.88;100372.25;5120223;28;20347;-69
2022/11/03 09:10:38;;;;;;;20.92;8.45;;;;;;;20.64;40.31;100371.81;5120752;28;20469;-69
2022/11/03 09:13:04;;;;;;;22.70;8.30;;;;;;;20.80;38.63;100378.59;5120039;28;20027;-69
2022/11/03 09:15:30;;;;;;;20.23;8.25;;;;;;;20.79;38.93;100367.00;5119407;28;20251;-69
2022/11/03 09:17:55;;;;;;;16.83;7.70;;;;;;;20.85;37.87;100373.41;5120050;28;20037;-68
2022/11/03 09:20:21;;;;;;;19.70;7.38;;;;;;;20.93;37.90;100370.47;5121237;28;20387;-69
2022/11/03 09:22:46;;;;;;;18.45;7.50;;;;;;;20.78;39.04;100370.72;5120571;28;20020;-69
2022/11/03 09:25:12;;;;;;;20.40;8.27;;;;;;;20.65;38.56;100360.00;5119408;28;20062;-69
2022/11/03 09:27:37;;;;;;;21.80;8.38;;;;;;;20.73;38.24;100359.78;5120603;28;20347;-69
2022/11/03 09:30:04;;;;;;;23.58;8.00;;;;;;;20.91;37.51;100356.41;5118965;28;20114;-69
2022/11/03 09:32:30;;;;;;;26.35;8.60;;;;;;;20.89;38.20;100355.81;5119625;28;20181;-69
2022/11/03 09:34:55;;;;;;;20.77;8.05;;;;;;;20.88;38.82;100354.97;5119756;28;20035;-70
2022/11/03 09:37:21;;;;;;;23.88;7.65;;;;;;;20.87;37.29;100353.31;5100804;28;20028;-69
2022/11/03 09:39:47;;;;;;;19.88;7.95;;;;;;;21.04;37.04;100351.78;5119407;28;20043;-69
2022/11/03 09:42:13;;;;;;;23.42;7.50;;;;;;;21.07;37.03;100353.22;5119111;28;20027;-69
2022/11/03 09:44:38;;;;;;;20.30;8.07;;;;;;;21.34;36.45;100341.28;5119585;28;20031;-70
2022/11/03 09:47:05;;;;;;;19.60;7.72;;;;;;;21.26;37.00;100344.22;5119128;28;20050;-69
2022/11/03 09:49:32;;;;;;;17.98;7.95;;;;;;;21.21;36.72;100344.03;5118866;28;20309;-69
2022/11/03 09:52:00;;;;;;;21.05;8.50;;;;;;;21.11;37.08;100350.91;5119688;28;20020;-69
2022/11/03 09:54:27;;;;;;;22.48;7.75;;;;;;;21.23;36.36;100339.28;5118489;28;20044;-69
2022/11/03 09:56:52;;;;;;;19.17;8.48;;;;;;;21.38;36.25;100348.91;5118637;28;20236;-69
2022/11/03 09:59:22;;;;;;;21.08;7.95;;;;;;;21.43;36.70;100344.53;5119499;28;20044;-69
2022/11/03 10:01:52;;;;;;;17.50;8.07;;;;;;;21.36;36.12;100338.34;5118732;28;20086;-69
2022/11/03 10:04:26;;;;;;;15.98;8.15;;;;;;;21.27;36.40;100323.50;5115871;28;20100;-69
2022/11/03 10:06:51;;;;;;;;;;;;;;;21.41;36.35;100332.31;5119824;28;20054;-69
2022/11/03 10:09:19;;;;;;;21.17;7.70;;;;;;;21.50;35.98;100317.53;5117840;28;20221;-69
2022/11/03 10:11:46;;;;;;;18.00;8.07;;;;;;;21.58;35.73;100326.16;5119622;28;20076;-69
2022/11/03 10:14:14;;;;;;;18.92;7.47;;;;;;;21.45;35.87;100325.44;5119081;28;20031;-69
2022/11/03 10:16:41;;;;;;;26.23;8.20;;;;;;;21.50;36.50;100322.91;5118444;28;20032;-69
2022/11/03 10:19:13;;;;;;;21.48;7.78;;;;;;;21.71;36.06;100314.44;5117257;28;20027;-70
2022/11/03 10:21:40;;;;;;;20.00;7.63;;;;;;;21.59;35.37;100306.25;5099978;28;20445;-69
2022/11/03 10:24:05;;;;;;;21.02;8.13;;;;;;;21.65;35.34;100312.63;5118336;28;20036;-69
2022/11/03 10:26:47;;;;;;;18.48;7.78;;;;;;;21.61;35.46;100314.13;5119055;28;20042;-69
2022/11/03 10:29:23;;;;;;;21.75;8.00;;;;;;;21.69;35.34;100308.47;5119304;28;20269;-70
2022/11/03 10:31:51;;;;;;;24.35;8.00;;;;;;;21.51;35.58;100295.75;5118861;28;20414;-70
2022/11/03 10:34:31;;;;;;;20.33;8.50;;;;;;;21.70;35.45;100287.72;5117954;28;20209;-69
2022/11/03 10:37:22;;;;;;;20.27;7.55;;;;;;;21.56;35.40;100289.72;5116888;28;20027;-70
2022/11/03 10:39:50;;;;;;;23.20;8.32;;;;;;;21.49;35.61;100287.06;5116264;28;20104;-70
2022/11/03 10:42:29;;;;;;;23.67;8.75;;;;;;;21.79;35.05;100281.81;5118574;28;20039;-70
2022/11/03 10:45:10;;;;;;;16.02;7.13;;;;;;;21.72;35.19;100275.66;5118378;28;20348;-70
2022/11/03 10:47:35;;;;;;;24.23;7.28;;;;;;;21.69;34.81;100251.84;5117780;28;20051;-70
2022/11/03 10:50:22;;;;;;;16.60;8.25;;;;;;;21.84;34.54;100264.97;5118992;28;20048;-69
2022/11/03 10:52:48;;;;;;;21.02;8.52;;;;;;;21.86;34.79;100262.91;5115518;28;20255;-69
2022/11/03 10:55:14;;;;;;;22.20;8.48;;;;;;;21.77;35.06;100259.66;5119025;28;20028;-70
2022/11/03 10:57:39;;;;;;;17.90;8.32;;;;;;;21.87;34.85;100253.78;5121390;28;20224;-70
2022/11/03 11:00:08;;;;;;;26.63;7.78;;;;;;;21.94;35.02;100260.75;5122810;28;20032;-70
2022/11/03 11:02:35;;;;;;;21.20;8.13;;;;;;;21.54;34.69;100211.78;5105315;28;20212;-70
2022/11/03 11:05:10;;;;;;;21.23;8.07;;;;;;;21.97;35.00;100248.69;5122202;28;20382;-69
2022/11/03 11:07:41;;;;;;;19.65;7.80;;;;;;;21.81;34.64;100233.06;5119913;28;20034;-70
2022/11/03 11:10:30;;;;;;;14.82;6.95;;;;;;;21.86;34.57;100242.19;5122931;28;20331;-70
2022/11/03 11:13:20;;;;;;;19.73;6.90;;;;;;;21.81;34.63;100233.91;5121915;28;20045;-70
2022/11/03 11:16:00;;;;;;;26.48;7.70;;;;;;;21.87;34.62;100233.03;5120265;28;20031;-69
2022/11/03 11:18:28;;;;;;;20.00;7.85;;;;;;;21.91;34.29;100222.63;5119525;28;20047;-70
2022/11/03 11:20:55;;;;;;;18.58;7.45;;;;;;;21.98;34.58;100220.69;5122121;27;20039;-70
2022/11/03 11:23:26;;;;;;;19.58;7.50;;;;;;;21.84;34.65;100219.97;5123603;28;20035;-70
2022/11/03 11:26:26;;;;;;;19.17;8.13;;;;;;;22.02;34.23;100212.97;5121697;28;20032;-70
2022/11/03 11:29:07;;;;;;;20.88;8.55;;;;;;;21.96;34.30;100215.53;5104480;28;20026;-69
2022/11/03 11:31:34;;;;;;;22.80;7.90;;;;;;;22.10;34.34;100212.69;5122123;28;20047;-70
2022/11/03 11:34:08;;;;;;;17.52;7.93;;;;;;;22.06;34.55;100195.31;5121536;28;20048;-70
2022/11/03 11:36:44;;;;;;;22.02;8.20;;;;;;;22.04;34.24;100192.84;5119037;28;20032;-70
2022/11/03 11:39:32;;;;;;;17.88;8.38;;;;;;;22.21;34.45;100190.34;5118538;28;20040;-70
2022/11/03 11:42:16;;;;;;;20.75;8.32;;;;;;;21.81;34.20;100153.03;5102276;28;20039;-69
2022/11/03 11:44:41;;;;;;;16.70;7.00;;;;;;;22.03;34.35;100188.50;5120298;28;20213;-69
2022/11/03 11:47:30;;;;;;;18.23;7.57;;;;;;;22.22;34.53;100182.03;5103577;28;20553;-70